This is the latest recevied weather packets stored in our database for station/object kj4yre. If no packets are shown the sender has not sent any weather packets the latest 10 day(s).
| Time | Temp. | Humidity | Pressure | Rain* | Wind** | Luminosity | Snow |
|---|---|---|---|---|---|---|---|
| 1777903505 | 18.89° C | 54% | 1016.7 hPa | 0 mm | - | - | - |
| 1777902006 | 16.67° C | 59% | 1016.9 hPa | 0 mm | - | - | - |
| 1777896306 | 12.22° C | 75% | 1017.7 hPa | 0 mm | - | - | - |
| 1777884007 | 10° C | 81% | 1018.5 hPa | 0 mm | - | - | - |
| 1777876507 | 9.44° C | 83% | 1018.5 hPa | 0 mm | - | - | - |
| 1777876207 | 9.44° C | 83% | 1018.5 hPa | 0 mm | - | - | - |
| 1777875905 | 9.44° C | 82% | 1018.6 hPa | 0 mm | - | - | - |
| 1777872306 | 8.89° C | 84% | 1018.6 hPa | 0 mm | - | - | - |
| 1777867213 | 6.67° C | 86% | 1018.3 hPa | 0 mm | - | - | - |
| 1777866906 | 6.67° C | 86% | 1018.3 hPa | 0 mm | - | - | - |
| 1777865105 | 6.67° C | 84% | 1018.2 hPa | 0 mm | - | - | - |
| 1777856407 | 9.44° C | 68% | 1017.5 hPa | 0 mm | - | - | - |
| 1777854006 | 11.11° C | 59% | 1017.1 hPa | 0 mm | - | - | - |
| 1777853105 | 12.22° C | 57% | 1017 hPa | 0 mm | - | - | - |
| 1777851008 | 13.89° C | 48% | 1016.8 hPa | 0 mm | - | - | - |
| 1777848307 | 18.33° C | 32% | 1016.5 hPa | 0 mm | - | - | - |
| 1777847408 | 18.89° C | 33% | 1016.6 hPa | 0 mm | - | - | - |
| 1777842609 | 18.89° C | 30% | 1016.5 hPa | 0 mm | - | - | - |
| 1777841406 | 18.33° C | 30% | 1016.4 hPa | 0 mm | - | - | - |
| 1777838707 | 18.89° C | 36% | 1016.7 hPa | 0 mm | - | - | - |
| 1777837506 | 18.33° C | 33% | 1016.8 hPa | 0 mm | - | - | - |
| 1777837205 | 18.89° C | 34% | 1017 hPa | 0 mm | - | - | - |
| 1777836907 | 18.33° C | 36% | 1017.1 hPa | 0 mm | - | - | - |
| 1777835407 | 17.78° C | 35% | 1017.4 hPa | 0 mm | - | - | - |
| 1777832407 | 17.22° C | 36% | 1017.9 hPa | 0 mm | - | - | - |
* Rain latest hour (hover to see other rain measurements)
** Current wind speed in m/s (hover to see current wind gust speed)